sensor_id;sensor_type;location;lat;lon;timestamp;P1;durP1;ratioP1;P2;durP2;ratioP2
58384;SDS011;44185;47.844;8.966;2023-07-31T00:02:05;4.57;;;1.88;;
58384;SDS011;44185;47.844;8.966;2023-07-31T00:04:32;2.70;;;1.90;;
58384;SDS011;44185;47.844;8.966;2023-07-31T00:06:58;2.47;;;2.10;;
58384;SDS011;44185;47.844;8.966;2023-07-31T00:09:23;5.25;;;2.15;;
58384;SDS011;44185;47.844;8.966;2023-07-31T00:11:49;4.32;;;2.20;;
58384;SDS011;44185;47.844;8.966;2023-07-31T00:14:14;3.00;;;2.05;;
58384;SDS011;44185;47.844;8.966;2023-07-31T00:16:39;3.65;;;2.20;;
58384;SDS011;44185;47.844;8.966;2023-07-31T00:19:05;3.30;;;2.20;;
58384;SDS011;44185;47.844;8.966;2023-07-31T00:21:32;4.90;;;2.13;;
58384;SDS011;44185;47.844;8.966;2023-07-31T00:23:58;3.60;;;2.00;;
58384;SDS011;44185;47.844;8.966;2023-07-31T00:26:23;6.13;;;2.28;;
58384;SDS011;44185;47.844;8.966;2023-07-31T00:28:49;2.70;;;2.13;;
58384;SDS011;44185;47.844;8.966;2023-07-31T00:31:14;3.55;;;2.10;;
58384;SDS011;44185;47.844;8.966;2023-07-31T00:33:39;4.28;;;2.13;;
58384;SDS011;44185;47.844;8.966;2023-07-31T00:36:05;2.45;;;2.25;;
58384;SDS011;44185;47.844;8.966;2023-07-31T00:38:32;4.65;;;2.10;;
58384;SDS011;44185;47.844;8.966;2023-07-31T00:40:58;3.90;;;2.10;;
58384;SDS011;44185;47.844;8.966;2023-07-31T00:43:24;2.45;;;2.17;;
58384;SDS011;44185;47.844;8.966;2023-07-31T00:45:50;4.75;;;2.20;;
58384;SDS011;44185;47.844;8.966;2023-07-31T00:48:15;2.63;;;2.20;;
58384;SDS011;44185;47.844;8.966;2023-07-31T00:50:41;2.30;;;2.17;;
58384;SDS011;44185;47.844;8.966;2023-07-31T00:53:06;5.15;;;2.35;;
58384;SDS011;44185;47.844;8.966;2023-07-31T00:55:33;5.75;;;2.40;;
58384;SDS011;44185;47.844;8.966;2023-07-31T00:57:59;3.95;;;2.22;;
58384;SDS011;44185;47.844;8.966;2023-07-31T01:00:24;4.65;;;2.40;;
58384;SDS011;44185;47.844;8.966;2023-07-31T01:02:50;5.40;;;2.40;;
58384;SDS011;44185;47.844;8.966;2023-07-31T01:05:16;3.75;;;2.50;;
58384;SDS011;44185;47.844;8.966;2023-07-31T01:07:45;7.95;;;2.35;;
58384;SDS011;44185;47.844;8.966;2023-07-31T01:10:18;3.63;;;2.10;;
58384;SDS011;44185;47.844;8.966;2023-07-31T01:12:48;2.92;;;2.22;;
58384;SDS011;44185;47.844;8.966;2023-07-31T01:15:16;6.88;;;2.17;;
58384;SDS011;44185;47.844;8.966;2023-07-31T01:17:42;5.07;;;2.25;;
58384;SDS011;44185;47.844;8.966;2023-07-31T01:20:10;4.00;;;2.15;;
58384;SDS011;44185;47.844;8.966;2023-07-31T01:22:45;2.50;;;2.30;;
58384;SDS011;44185;47.844;8.966;2023-07-31T01:25:29;7.22;;;2.28;;
58384;SDS011;44185;47.844;8.966;2023-07-31T01:28:10;4.90;;;2.40;;
58384;SDS011;44185;47.844;8.966;2023-07-31T01:30:40;3.35;;;2.15;;
58384;SDS011;44185;47.844;8.966;2023-07-31T01:33:08;3.90;;;2.10;;
58384;SDS011;44185;47.844;8.966;2023-07-31T01:35:34;4.03;;;2.25;;
58384;SDS011;44185;47.844;8.966;2023-07-31T01:38:01;4.80;;;2.28;;
58384;SDS011;44185;47.844;8.966;2023-07-31T01:40:26;5.13;;;2.33;;
58384;SDS011;44185;47.844;8.966;2023-07-31T01:42:53;5.93;;;2.40;;
58384;SDS011;44185;47.844;8.966;2023-07-31T01:45:19;4.55;;;2.42;;
58384;SDS011;44185;47.844;8.966;2023-07-31T01:47:44;3.05;;;2.30;;
58384;SDS011;44185;47.844;8.966;2023-07-31T01:50:10;4.22;;;2.20;;
58384;SDS011;44185;47.844;8.966;2023-07-31T01:52:35;3.10;;;2.10;;
58384;SDS011;44185;47.844;8.966;2023-07-31T01:55:00;6.78;;;2.58;;
58384;SDS011;44185;47.844;8.966;2023-07-31T01:57:26;2.58;;;1.90;;
58384;SDS011;44185;47.844;8.966;2023-07-31T01:59:53;3.55;;;2.20;;
58384;SDS011;44185;47.844;8.966;2023-07-31T02:02:19;3.40;;;2.47;;
58384;SDS011;44185;47.844;8.966;2023-07-31T02:04:44;3.28;;;2.10;;
58384;SDS011;44185;47.844;8.966;2023-07-31T02:07:10;4.28;;;2.40;;
58384;SDS011;44185;47.844;8.966;2023-07-31T02:09:35;3.45;;;2.50;;
58384;SDS011;44185;47.844;8.966;2023-07-31T02:12:01;2.20;;;2.00;;
58384;SDS011;44185;47.844;8.966;2023-07-31T02:14:26;4.68;;;2.05;;
58384;SDS011;44185;47.844;8.966;2023-07-31T02:16:53;3.17;;;2.33;;
58384;SDS011;44185;47.844;8.966;2023-07-31T02:19:18;3.35;;;2.13;;
58384;SDS011;44185;47.844;8.966;2023-07-31T02:21:44;5.40;;;2.30;;
58384;SDS011;44185;47.844;8.966;2023-07-31T02:24:09;5.60;;;2.30;;
58384;SDS011;44185;47.844;8.966;2023-07-31T02:26:35;5.32;;;2.15;;
58384;SDS011;44185;47.844;8.966;2023-07-31T02:29:00;4.60;;;2.70;;
58384;SDS011;44185;47.844;8.966;2023-07-31T02:31:26;3.13;;;2.30;;
58384;SDS011;44185;47.844;8.966;2023-07-31T02:33:52;4.10;;;2.10;;
58384;SDS011;44185;47.844;8.966;2023-07-31T02:36:18;3.60;;;2.28;;
58384;SDS011;44185;47.844;8.966;2023-07-31T02:38:43;2.17;;;1.98;;
58384;SDS011;44185;47.844;8.966;2023-07-31T02:41:09;4.90;;;2.50;;
58384;SDS011;44185;47.844;8.966;2023-07-31T02:43:34;3.90;;;2.20;;
58384;SDS011;44185;47.844;8.966;2023-07-31T02:46:00;4.45;;;2.20;;
58384;SDS011;44185;47.844;8.966;2023-07-31T02:48:25;5.43;;;2.13;;
58384;SDS011;44185;47.844;8.966;2023-07-31T02:50:53;3.50;;;2.30;;
58384;SDS011;44185;47.844;8.966;2023-07-31T02:53:18;2.72;;;2.22;;
58384;SDS011;44185;47.844;8.966;2023-07-31T02:55:44;6.03;;;2.58;;
58384;SDS011;44185;47.844;8.966;2023-07-31T02:58:09;3.10;;;2.10;;
58384;SDS011;44185;47.844;8.966;2023-07-31T03:00:34;2.65;;;2.05;;
58384;SDS011;44185;47.844;8.966;2023-07-31T03:03:00;2.63;;;2.05;;
58384;SDS011;44185;47.844;8.966;2023-07-31T03:05:25;4.15;;;2.28;;
58384;SDS011;44185;47.844;8.966;2023-07-31T03:07:52;3.75;;;2.17;;
58384;SDS011;44185;47.844;8.966;2023-07-31T03:10:17;5.22;;;2.40;;
58384;SDS011;44185;47.844;8.966;2023-07-31T03:12:45;2.28;;;2.08;;
58384;SDS011;44185;47.844;8.966;2023-07-31T03:15:11;3.67;;;2.38;;
58384;SDS011;44185;47.844;8.966;2023-07-31T03:17:37;4.93;;;2.45;;
58384;SDS011;44185;47.844;8.966;2023-07-31T03:20:03;5.45;;;2.53;;
58384;SDS011;44185;47.844;8.966;2023-07-31T03:22:29;3.65;;;2.25;;
58384;SDS011;44185;47.844;8.966;2023-07-31T03:24:56;3.08;;;2.05;;
58384;SDS011;44185;47.844;8.966;2023-07-31T03:27:21;6.13;;;2.40;;
58384;SDS011;44185;47.844;8.966;2023-07-31T03:29:46;5.07;;;2.47;;
58384;SDS011;44185;47.844;8.966;2023-07-31T03:32:12;7.68;;;2.75;;
58384;SDS011;44185;47.844;8.966;2023-07-31T03:34:37;3.75;;;2.40;;
58384;SDS011;44185;47.844;8.966;2023-07-31T03:37:03;3.97;;;2.10;;
58384;SDS011;44185;47.844;8.966;2023-07-31T03:39:29;4.32;;;2.65;;
58384;SDS011;44185;47.844;8.966;2023-07-31T03:41:55;3.28;;;2.25;;
58384;SDS011;44185;47.844;8.966;2023-07-31T03:44:21;4.55;;;2.20;;
58384;SDS011;44185;47.844;8.966;2023-07-31T03:46:47;3.15;;;2.30;;
58384;SDS011;44185;47.844;8.966;2023-07-31T03:49:13;3.03;;;2.45;;
58384;SDS011;44185;47.844;8.966;2023-07-31T03:51:38;3.60;;;2.13;;
58384;SDS011;44185;47.844;8.966;2023-07-31T03:54:04;3.92;;;2.60;;
58384;SDS011;44185;47.844;8.966;2023-07-31T03:56:29;4.70;;;2.20;;
58384;SDS011;44185;47.844;8.966;2023-07-31T03:58:59;5.20;;;2.58;;
58384;SDS011;44185;47.844;8.966;2023-07-31T04:01:25;4.93;;;2.55;;
58384;SDS011;44185;47.844;8.966;2023-07-31T04:03:51;2.83;;;2.40;;
58384;SDS011;44185;47.844;8.966;2023-07-31T04:06:17;3.88;;;2.28;;
58384;SDS011;44185;47.844;8.966;2023-07-31T04:08:43;3.67;;;2.63;;
58384;SDS011;44185;47.844;8.966;2023-07-31T04:11:08;5.65;;;2.63;;
58384;SDS011;44185;47.844;8.966;2023-07-31T04:13:34;3.22;;;2.22;;
58384;SDS011;44185;47.844;8.966;2023-07-31T04:16:00;4.82;;;2.33;;
58384;SDS011;44185;47.844;8.966;2023-07-31T04:18:26;4.45;;;2.65;;
58384;SDS011;44185;47.844;8.966;2023-07-31T04:20:51;5.32;;;2.30;;
58384;SDS011;44185;47.844;8.966;2023-07-31T04:23:17;4.82;;;2.60;;
58384;SDS011;44185;47.844;8.966;2023-07-31T04:25:43;2.65;;;2.45;;
58384;SDS011;44185;47.844;8.966;2023-07-31T04:28:08;3.47;;;2.42;;
58384;SDS011;44185;47.844;8.966;2023-07-31T04:30:34;2.92;;;2.50;;
58384;SDS011;44185;47.844;8.966;2023-07-31T04:33:00;2.20;;;2.00;;
58384;SDS011;44185;47.844;8.966;2023-07-31T04:35:26;5.00;;;2.65;;
58384;SDS011;44185;47.844;8.966;2023-07-31T04:37:52;5.43;;;2.70;;
58384;SDS011;44185;47.844;8.966;2023-07-31T04:40:17;2.47;;;2.28;;
58384;SDS011;44185;47.844;8.966;2023-07-31T04:42:43;3.10;;;2.33;;
58384;SDS011;44185;47.844;8.966;2023-07-31T04:45:09;2.97;;;2.22;;
58384;SDS011;44185;47.844;8.966;2023-07-31T04:47:35;3.97;;;2.40;;
58384;SDS011;44185;47.844;8.966;2023-07-31T04:50:03;3.97;;;2.45;;
58384;SDS011;44185;47.844;8.966;2023-07-31T04:52:30;3.83;;;2.38;;
58384;SDS011;44185;47.844;8.966;2023-07-31T04:54:55;4.47;;;2.58;;
58384;SDS011;44185;47.844;8.966;2023-07-31T04:57:21;4.10;;;2.40;;
58384;SDS011;44185;47.844;8.966;2023-07-31T04:59:46;3.45;;;2.53;;
58384;SDS011;44185;47.844;8.966;2023-07-31T05:02:12;5.60;;;2.70;;
58384;SDS011;44185;47.844;8.966;2023-07-31T05:04:37;3.65;;;2.50;;
58384;SDS011;44185;47.844;8.966;2023-07-31T05:07:04;3.28;;;2.45;;
58384;SDS011;44185;47.844;8.966;2023-07-31T05:09:30;4.78;;;2.50;;
58384;SDS011;44185;47.844;8.966;2023-07-31T05:11:55;3.30;;;2.20;;
58384;SDS011;44185;47.844;8.966;2023-07-31T05:14:21;6.25;;;2.70;;
58384;SDS011;44185;47.844;8.966;2023-07-31T05:16:46;4.93;;;2.70;;
58384;SDS011;44185;47.844;8.966;2023-07-31T05:19:12;5.05;;;2.55;;
58384;SDS011;44185;47.844;8.966;2023-07-31T05:21:37;6.55;;;3.05;;
58384;SDS011;44185;47.844;8.966;2023-07-31T05:24:04;5.07;;;2.47;;
58384;SDS011;44185;47.844;8.966;2023-07-31T05:26:30;3.80;;;2.67;;
58384;SDS011;44185;47.844;8.966;2023-07-31T05:28:55;4.38;;;2.72;;
58384;SDS011;44185;47.844;8.966;2023-07-31T05:31:21;8.10;;;3.05;;
58384;SDS011;44185;47.844;8.966;2023-07-31T05:33:46;4.82;;;2.80;;
58384;SDS011;44185;47.844;8.966;2023-07-31T05:36:12;7.07;;;3.28;;
58384;SDS011;44185;47.844;8.966;2023-07-31T05:38:37;5.55;;;2.92;;
58384;SDS011;44185;47.844;8.966;2023-07-31T05:41:04;6.18;;;2.80;;
58384;SDS011;44185;47.844;8.966;2023-07-31T05:43:29;6.95;;;2.88;;
58384;SDS011;44185;47.844;8.966;2023-07-31T05:45:55;8.93;;;3.30;;
58384;SDS011;44185;47.844;8.966;2023-07-31T05:48:20;4.28;;;2.85;;
58384;SDS011;44185;47.844;8.966;2023-07-31T05:50:46;8.68;;;3.40;;
58384;SDS011;44185;47.844;8.966;2023-07-31T05:53:11;7.63;;;3.20;;
58384;SDS011;44185;47.844;8.966;2023-07-31T05:55:37;4.50;;;3.25;;
58384;SDS011;44185;47.844;8.966;2023-07-31T05:58:03;5.97;;;3.13;;
58384;SDS011;44185;47.844;8.966;2023-07-31T06:00:29;6.65;;;3.13;;
58384;SDS011;44185;47.844;8.966;2023-07-31T06:02:54;3.47;;;2.45;;
58384;SDS011;44185;47.844;8.966;2023-07-31T06:05:20;5.27;;;2.90;;
58384;SDS011;44185;47.844;8.966;2023-07-31T06:07:45;6.50;;;2.80;;
58384;SDS011;44185;47.844;8.966;2023-07-31T06:10:14;5.22;;;2.67;;
58384;SDS011;44185;47.844;8.966;2023-07-31T06:12:39;5.68;;;2.90;;
58384;SDS011;44185;47.844;8.966;2023-07-31T06:15:06;7.18;;;2.60;;
58384;SDS011;44185;47.844;8.966;2023-07-31T06:17:32;5.95;;;2.95;;
58384;SDS011;44185;47.844;8.966;2023-07-31T06:19:58;5.13;;;2.55;;
58384;SDS011;44185;47.844;8.966;2023-07-31T06:22:23;5.78;;;2.80;;
58384;SDS011;44185;47.844;8.966;2023-07-31T06:24:49;4.53;;;2.97;;
58384;SDS011;44185;47.844;8.966;2023-07-31T06:27:14;6.60;;;3.17;;
58384;SDS011;44185;47.844;8.966;2023-07-31T06:29:39;4.20;;;2.40;;
58384;SDS011;44185;47.844;8.966;2023-07-31T06:32:11;6.53;;;2.63;;
58384;SDS011;44185;47.844;8.966;2023-07-31T06:34:37;5.97;;;2.33;;
58384;SDS011;44185;47.844;8.966;2023-07-31T06:37:02;3.42;;;2.50;;
58384;SDS011;44185;47.844;8.966;2023-07-31T06:39:28;4.82;;;2.70;;
58384;SDS011;44185;47.844;8.966;2023-07-31T06:41:53;5.53;;;2.40;;
58384;SDS011;44185;47.844;8.966;2023-07-31T06:44:19;3.65;;;2.63;;
58384;SDS011;44185;47.844;8.966;2023-07-31T06:46:44;3.88;;;2.55;;
58384;SDS011;44185;47.844;8.966;2023-07-31T06:49:11;3.47;;;2.40;;
58384;SDS011;44185;47.844;8.966;2023-07-31T06:51:36;4.97;;;2.70;;
58384;SDS011;44185;47.844;8.966;2023-07-31T06:54:02;6.38;;;2.95;;
58384;SDS011;44185;47.844;8.966;2023-07-31T06:56:28;2.97;;;2.20;;
58384;SDS011;44185;47.844;8.966;2023-07-31T06:58:54;5.57;;;2.50;;
58384;SDS011;44185;47.844;8.966;2023-07-31T07:01:20;4.38;;;2.40;;
58384;SDS011;44185;47.844;8.966;2023-07-31T07:03:46;6.28;;;2.60;;
58384;SDS011;44185;47.844;8.966;2023-07-31T07:06:12;4.40;;;2.58;;
58384;SDS011;44185;47.844;8.966;2023-07-31T07:08:38;6.32;;;2.58;;
58384;SDS011;44185;47.844;8.966;2023-07-31T07:11:03;4.75;;;2.35;;
58384;SDS011;44185;47.844;8.966;2023-07-31T07:13:29;5.65;;;2.35;;
58384;SDS011;44185;47.844;8.966;2023-07-31T07:15:54;7.68;;;3.15;;
58384;SDS011;44185;47.844;8.966;2023-07-31T07:18:20;4.70;;;2.50;;
58384;SDS011;44185;47.844;8.966;2023-07-31T07:20:49;4.43;;;2.35;;
58384;SDS011;44185;47.844;8.966;2023-07-31T07:23:20;6.15;;;3.05;;
58384;SDS011;44185;47.844;8.966;2023-07-31T07:25:46;5.68;;;2.70;;
58384;SDS011;44185;47.844;8.966;2023-07-31T07:28:13;4.18;;;2.72;;
58384;SDS011;44185;47.844;8.966;2023-07-31T07:30:38;4.28;;;2.58;;
58384;SDS011;44185;47.844;8.966;2023-07-31T07:33:04;3.30;;;2.47;;
58384;SDS011;44185;47.844;8.966;2023-07-31T07:35:29;6.93;;;2.65;;
58384;SDS011;44185;47.844;8.966;2023-07-31T07:37:55;5.32;;;2.63;;
58384;SDS011;44185;47.844;8.966;2023-07-31T07:40:22;4.07;;;2.50;;
58384;SDS011;44185;47.844;8.966;2023-07-31T07:42:47;7.80;;;2.72;;
58384;SDS011;44185;47.844;8.966;2023-07-31T07:45:13;7.68;;;2.55;;
58384;SDS011;44185;47.844;8.966;2023-07-31T07:47:40;6.38;;;2.80;;
58384;SDS011;44185;47.844;8.966;2023-07-31T07:50:06;6.03;;;2.05;;
58384;SDS011;44185;47.844;8.966;2023-07-31T07:52:32;4.30;;;2.25;;
58384;SDS011;44185;47.844;8.966;2023-07-31T07:54:58;6.57;;;2.60;;
58384;SDS011;44185;47.844;8.966;2023-07-31T07:57:25;3.28;;;2.15;;
58384;SDS011;44185;47.844;8.966;2023-07-31T07:59:50;6.82;;;2.75;;
58384;SDS011;44185;47.844;8.966;2023-07-31T08:02:16;4.28;;;2.22;;
58384;SDS011;44185;47.844;8.966;2023-07-31T08:04:41;5.88;;;2.53;;
58384;SDS011;44185;47.844;8.966;2023-07-31T08:07:07;3.40;;;2.30;;
58384;SDS011;44185;47.844;8.966;2023-07-31T08:09:32;7.50;;;2.70;;
58384;SDS011;44185;47.844;8.966;2023-07-31T08:11:58;5.22;;;2.22;;
58384;SDS011;44185;47.844;8.966;2023-07-31T08:14:24;3.33;;;1.63;;
58384;SDS011;44185;47.844;8.966;2023-07-31T08:16:50;4.28;;;2.42;;
58384;SDS011;44185;47.844;8.966;2023-07-31T08:19:16;4.38;;;2.17;;
58384;SDS011;44185;47.844;8.966;2023-07-31T08:21:41;5.72;;;1.98;;
58384;SDS011;44185;47.844;8.966;2023-07-31T08:24:07;2.90;;;1.73;;
58384;SDS011;44185;47.844;8.966;2023-07-31T08:26:32;3.38;;;1.60;;
58384;SDS011;44185;47.844;8.966;2023-07-31T08:29:00;6.50;;;2.30;;
58384;SDS011;44185;47.844;8.966;2023-07-31T08:31:27;4.68;;;1.90;;
58384;SDS011;44185;47.844;8.966;2023-07-31T08:33:52;4.40;;;1.90;;
58384;SDS011;44185;47.844;8.966;2023-07-31T08:36:18;2.90;;;1.60;;
58384;SDS011;44185;47.844;8.966;2023-07-31T08:38:44;3.08;;;1.98;;
58384;SDS011;44185;47.844;8.966;2023-07-31T08:41:10;5.88;;;2.00;;
58384;SDS011;44185;47.844;8.966;2023-07-31T08:43:35;3.03;;;2.17;;
58384;SDS011;44185;47.844;8.966;2023-07-31T08:46:02;4.25;;;1.90;;
58384;SDS011;44185;47.844;8.966;2023-07-31T08:48:30;6.68;;;2.10;;
58384;SDS011;44185;47.844;8.966;2023-07-31T08:50:56;2.72;;;1.52;;
58384;SDS011;44185;47.844;8.966;2023-07-31T08:53:22;2.80;;;1.80;;
58384;SDS011;44185;47.844;8.966;2023-07-31T08:55:47;4.80;;;1.88;;
58384;SDS011;44185;47.844;8.966;2023-07-31T08:58:14;3.13;;;1.70;;
58384;SDS011;44185;47.844;8.966;2023-07-31T09:00:40;7.57;;;2.08;;
58384;SDS011;44185;47.844;8.966;2023-07-31T09:03:08;3.20;;;1.70;;
58384;SDS011;44185;47.844;8.966;2023-07-31T09:05:36;2.70;;;2.13;;
58384;SDS011;44185;47.844;8.966;2023-07-31T09:08:04;3.58;;;1.80;;
58384;SDS011;44185;47.844;8.966;2023-07-31T09:10:30;5.47;;;2.03;;
58384;SDS011;44185;47.844;8.966;2023-07-31T09:12:55;4.95;;;2.33;;
58384;SDS011;44185;47.844;8.966;2023-07-31T09:15:21;4.00;;;1.90;;
58384;SDS011;44185;47.844;8.966;2023-07-31T09:17:48;6.82;;;2.75;;
58384;SDS011;44185;47.844;8.966;2023-07-31T09:20:24;2.78;;;1.63;;
58384;SDS011;44185;47.844;8.966;2023-07-31T09:22:51;3.35;;;2.03;;
58384;SDS011;44185;47.844;8.966;2023-07-31T09:25:17;3.30;;;1.90;;
58384;SDS011;44185;47.844;8.966;2023-07-31T09:27:46;5.05;;;1.98;;
58384;SDS011;44185;47.844;8.966;2023-07-31T09:30:16;3.90;;;1.80;;
58384;SDS011;44185;47.844;8.966;2023-07-31T09:32:43;6.10;;;2.20;;
58384;SDS011;44185;47.844;8.966;2023-07-31T09:35:13;4.10;;;1.90;;
58384;SDS011;44185;47.844;8.966;2023-07-31T09:37:43;5.72;;;2.30;;
58384;SDS011;44185;47.844;8.966;2023-07-31T09:40:10;5.70;;;2.05;;
58384;SDS011;44185;47.844;8.966;2023-07-31T09:42:50;4.53;;;1.80;;
58384;SDS011;44185;47.844;8.966;2023-07-31T09:45:16;7.00;;;1.90;;
58384;SDS011;44185;47.844;8.966;2023-07-31T09:47:46;5.47;;;1.80;;
58384;SDS011;44185;47.844;8.966;2023-07-31T09:50:11;3.53;;;1.80;;
58384;SDS011;44185;47.844;8.966;2023-07-31T09:52:38;4.10;;;1.87;;
58384;SDS011;44185;47.844;8.966;2023-07-31T09:55:04;4.50;;;2.10;;
58384;SDS011;44185;47.844;8.966;2023-07-31T09:57:31;3.90;;;1.55;;
58384;SDS011;44185;47.844;8.966;2023-07-31T09:59:58;5.53;;;1.98;;
58384;SDS011;44185;47.844;8.966;2023-07-31T10:02:23;2.35;;;1.70;;
58384;SDS011;44185;47.844;8.966;2023-07-31T10:04:50;5.25;;;1.85;;
58384;SDS011;44185;47.844;8.966;2023-07-31T10:07:17;3.67;;;1.90;;
58384;SDS011;44185;47.844;8.966;2023-07-31T10:09:43;3.80;;;1.60;;
58384;SDS011;44185;47.844;8.966;2023-07-31T10:12:10;4.72;;;1.83;;
58384;SDS011;44185;47.844;8.966;2023-07-31T10:14:41;3.15;;;1.35;;
58384;SDS011;44185;47.844;8.966;2023-07-31T10:17:07;1.95;;;1.75;;
58384;SDS011;44185;47.844;8.966;2023-07-31T10:19:33;2.50;;;1.95;;
58384;SDS011;44185;47.844;8.966;2023-07-31T10:22:00;5.28;;;2.00;;
58384;SDS011;44185;47.844;8.966;2023-07-31T10:24:28;2.90;;;1.75;;
58384;SDS011;44185;47.844;8.966;2023-07-31T10:26:54;3.58;;;1.48;;
58384;SDS011;44185;47.844;8.966;2023-07-31T10:29:22;5.22;;;2.00;;
58384;SDS011;44185;47.844;8.966;2023-07-31T10:31:50;2.92;;;1.90;;
58384;SDS011;44185;47.844;8.966;2023-07-31T10:34:17;2.88;;;1.70;;
58384;SDS011;44185;47.844;8.966;2023-07-31T10:36:43;3.72;;;1.63;;
58384;SDS011;44185;47.844;8.966;2023-07-31T10:39:32;3.13;;;1.33;;
58384;SDS011;44185;47.844;8.966;2023-07-31T10:41:59;2.00;;;1.80;;
58384;SDS011;44185;47.844;8.966;2023-07-31T10:44:24;5.75;;;2.03;;
58384;SDS011;44185;47.844;8.966;2023-07-31T10:46:51;3.95;;;1.50;;
58384;SDS011;44185;47.844;8.966;2023-07-31T10:51:46;4.40;;;1.70;;
58384;SDS011;44185;47.844;8.966;2023-07-31T10:54:13;2.88;;;1.90;;
58384;SDS011;44185;47.844;8.966;2023-07-31T10:56:44;3.10;;;1.80;;
58384;SDS011;44185;47.844;8.966;2023-07-31T10:59:10;5.38;;;2.35;;
58384;SDS011;44185;47.844;8.966;2023-07-31T11:01:52;4.72;;;2.00;;
58384;SDS011;44185;47.844;8.966;2023-07-31T11:04:21;3.20;;;1.80;;
58384;SDS011;44185;47.844;8.966;2023-07-31T11:06:55;3.53;;;1.77;;
58384;SDS011;44185;47.844;8.966;2023-07-31T11:09:20;2.50;;;1.88;;
58384;SDS011;44185;47.844;8.966;2023-07-31T11:11:46;2.33;;;1.52;;
58384;SDS011;44185;47.844;8.966;2023-07-31T11:14:11;6.22;;;1.90;;
58384;SDS011;44185;47.844;8.966;2023-07-31T11:16:37;5.43;;;2.13;;
58384;SDS011;44185;47.844;8.966;2023-07-31T11:19:03;3.72;;;1.48;;
58384;SDS011;44185;47.844;8.966;2023-07-31T11:21:33;4.28;;;1.98;;
58384;SDS011;44185;47.844;8.966;2023-07-31T11:23:59;6.07;;;2.20;;
58384;SDS011;44185;47.844;8.966;2023-07-31T11:26:24;4.50;;;2.00;;
58384;SDS011;44185;47.844;8.966;2023-07-31T11:28:50;2.58;;;1.75;;
58384;SDS011;44185;47.844;8.966;2023-07-31T11:31:16;4.32;;;1.70;;
58384;SDS011;44185;47.844;8.966;2023-07-31T11:33:42;4.60;;;2.10;;
58384;SDS011;44185;47.844;8.966;2023-07-31T11:36:15;2.15;;;1.85;;
58384;SDS011;44185;47.844;8.966;2023-07-31T11:38:41;2.67;;;1.88;;
58384;SDS011;44185;47.844;8.966;2023-07-31T11:41:06;4.18;;;1.50;;
58384;SDS011;44185;47.844;8.966;2023-07-31T11:43:32;4.78;;;1.98;;
58384;SDS011;44185;47.844;8.966;2023-07-31T11:45:58;2.13;;;1.23;;
58384;SDS011;44185;47.844;8.966;2023-07-31T11:48:25;1.95;;;1.27;;
58384;SDS011;44185;47.844;8.966;2023-07-31T11:50:53;4.03;;;1.85;;
58384;SDS011;44185;47.844;8.966;2023-07-31T11:53:22;5.82;;;2.10;;
58384;SDS011;44185;47.844;8.966;2023-07-31T11:55:53;4.95;;;1.48;;
58384;SDS011;44185;47.844;8.966;2023-07-31T11:58:19;5.57;;;1.85;;
58384;SDS011;44185;47.844;8.966;2023-07-31T12:00:46;3.00;;;1.95;;
58384;SDS011;44185;47.844;8.966;2023-07-31T12:03:13;1.67;;;1.38;;
58384;SDS011;44185;47.844;8.966;2023-07-31T12:05:38;3.40;;;1.77;;
58384;SDS011;44185;47.844;8.966;2023-07-31T12:08:08;3.03;;;1.63;;
58384;SDS011;44185;47.844;8.966;2023-07-31T12:10:35;3.83;;;1.75;;
58384;SDS011;44185;47.844;8.966;2023-07-31T12:13:02;2.60;;;1.95;;
58384;SDS011;44185;47.844;8.966;2023-07-31T12:15:32;4.97;;;2.10;;
58384;SDS011;44185;47.844;8.966;2023-07-31T12:17:59;4.32;;;2.00;;
58384;SDS011;44185;47.844;8.966;2023-07-31T12:20:24;4.13;;;1.88;;
58384;SDS011;44185;47.844;8.966;2023-07-31T12:22:50;2.83;;;1.38;;
58384;SDS011;44185;47.844;8.966;2023-07-31T12:25:15;6.00;;;2.35;;
58384;SDS011;44185;47.844;8.966;2023-07-31T12:27:43;3.47;;;1.80;;
58384;SDS011;44185;47.844;8.966;2023-07-31T12:32:53;3.13;;;1.80;;
58384;SDS011;44185;47.844;8.966;2023-07-31T12:35:18;4.38;;;2.08;;
58384;SDS011;44185;47.844;8.966;2023-07-31T12:37:44;5.57;;;2.10;;
58384;SDS011;44185;47.844;8.966;2023-07-31T12:40:10;2.63;;;2.15;;
58384;SDS011;44185;47.844;8.966;2023-07-31T12:42:36;5.18;;;1.80;;
58384;SDS011;44185;47.844;8.966;2023-07-31T12:45:03;4.95;;;2.17;;
58384;SDS011;44185;47.844;8.966;2023-07-31T12:47:29;4.45;;;2.30;;
58384;SDS011;44185;47.844;8.966;2023-07-31T12:49:55;5.15;;;2.40;;
58384;SDS011;44185;47.844;8.966;2023-07-31T12:52:20;14.20;;;5.40;;
58384;SDS011;44185;47.844;8.966;2023-07-31T12:54:46;20.45;;;7.38;;
58384;SDS011;44185;47.844;8.966;2023-07-31T12:57:11;6.95;;;3.15;;
58384;SDS011;44185;47.844;8.966;2023-07-31T12:59:36;4.60;;;2.10;;
58384;SDS011;44185;47.844;8.966;2023-07-31T13:02:03;9.38;;;3.38;;
58384;SDS011;44185;47.844;8.966;2023-07-31T13:04:30;4.45;;;2.20;;
58384;SDS011;44185;47.844;8.966;2023-07-31T13:06:55;6.05;;;2.20;;
58384;SDS011;44185;47.844;8.966;2023-07-31T13:09:20;4.65;;;2.20;;
58384;SDS011;44185;47.844;8.966;2023-07-31T13:11:46;5.47;;;2.10;;
58384;SDS011;44185;47.844;8.966;2023-07-31T13:14:11;5.03;;;2.72;;
58384;SDS011;44185;47.844;8.966;2023-07-31T13:16:37;6.55;;;2.47;;
58384;SDS011;44185;47.844;8.966;2023-07-31T13:19:04;3.63;;;1.80;;
58384;SDS011;44185;47.844;8.966;2023-07-31T13:21:29;5.75;;;2.30;;
58384;SDS011;44185;47.844;8.966;2023-07-31T13:23:54;5.47;;;2.65;;
58384;SDS011;44185;47.844;8.966;2023-07-31T13:26:20;3.27;;;2.10;;
58384;SDS011;44185;47.844;8.966;2023-07-31T13:28:45;6.13;;;2.28;;
58384;SDS011;44185;47.844;8.966;2023-07-31T13:31:11;6.00;;;2.35;;
58384;SDS011;44185;47.844;8.966;2023-07-31T13:33:36;3.45;;;2.22;;
58384;SDS011;44185;47.844;8.966;2023-07-31T13:36:03;7.13;;;2.50;;
58384;SDS011;44185;47.844;8.966;2023-07-31T13:38:28;5.90;;;2.50;;
58384;SDS011;44185;47.844;8.966;2023-07-31T13:40:54;4.75;;;2.00;;
58384;SDS011;44185;47.844;8.966;2023-07-31T13:43:19;3.47;;;2.08;;
58384;SDS011;44185;47.844;8.966;2023-07-31T13:45:45;6.20;;;2.40;;
58384;SDS011;44185;47.844;8.966;2023-07-31T13:48:10;3.55;;;2.00;;
58384;SDS011;44185;47.844;8.966;2023-07-31T13:50:36;4.90;;;1.95;;
58384;SDS011;44185;47.844;8.966;2023-07-31T13:53:02;3.28;;;2.20;;
58384;SDS011;44185;47.844;8.966;2023-07-31T13:55:28;4.20;;;2.50;;
58384;SDS011;44185;47.844;8.966;2023-07-31T13:57:54;6.60;;;2.53;;
58384;SDS011;44185;47.844;8.966;2023-07-31T14:00:19;3.28;;;2.22;;
58384;SDS011;44185;47.844;8.966;2023-07-31T14:02:44;6.47;;;2.50;;
58384;SDS011;44185;47.844;8.966;2023-07-31T14:05:10;3.92;;;2.17;;
58384;SDS011;44185;47.844;8.966;2023-07-31T14:07:35;5.93;;;2.35;;
58384;SDS011;44185;47.844;8.966;2023-07-31T14:10:02;5.00;;;2.60;;
58384;SDS011;44185;47.844;8.966;2023-07-31T14:12:28;6.38;;;2.38;;
58384;SDS011;44185;47.844;8.966;2023-07-31T14:14:53;5.53;;;2.60;;
58384;SDS011;44185;47.844;8.966;2023-07-31T14:17:19;4.53;;;2.43;;
58384;SDS011;44185;47.844;8.966;2023-07-31T14:19:44;3.63;;;2.15;;
58384;SDS011;44185;47.844;8.966;2023-07-31T14:22:10;2.80;;;2.25;;
58384;SDS011;44185;47.844;8.966;2023-07-31T14:24:35;6.85;;;2.40;;
58384;SDS011;44185;47.844;8.966;2023-07-31T14:27:02;6.05;;;2.63;;
58384;SDS011;44185;47.844;8.966;2023-07-31T14:29:28;5.28;;;2.22;;
58384;SDS011;44185;47.844;8.966;2023-07-31T14:31:54;4.78;;;2.42;;
58384;SDS011;44185;47.844;8.966;2023-07-31T14:34:20;5.25;;;1.98;;
58384;SDS011;44185;47.844;8.966;2023-07-31T14:36:45;6.55;;;2.60;;
58384;SDS011;44185;47.844;8.966;2023-07-31T14:39:11;5.53;;;2.57;;
58384;SDS011;44185;47.844;8.966;2023-07-31T14:41:36;3.22;;;2.28;;
58384;SDS011;44185;47.844;8.966;2023-07-31T14:44:03;3.60;;;2.20;;
58384;SDS011;44185;47.844;8.966;2023-07-31T14:46:29;5.22;;;2.63;;
58384;SDS011;44185;47.844;8.966;2023-07-31T14:48:54;7.07;;;2.60;;